createdAt,value
2022-12-04T00:01:06.334Z,92159.34
2022-12-04T00:03:32.923Z,92148.88
2022-12-04T00:06:04.636Z,92146.09
2022-12-04T00:08:31.170Z,92148.03
2022-12-04T00:10:58.034Z,92150.63
2022-12-04T00:13:24.598Z,92146.88
2022-12-04T00:15:51.039Z,92158.44
2022-12-04T00:18:17.472Z,92157.44
2022-12-04T00:20:43.910Z,92154.63
2022-12-04T00:23:10.345Z,92143.88
2022-12-04T00:25:41.186Z,92129.97
2022-12-04T00:28:08.100Z,92133.97
2022-12-04T00:30:34.540Z,92145.69
2022-12-04T00:33:00.957Z,92139.72
2022-12-04T00:35:27.384Z,92137.13
2022-12-04T00:37:53.828Z,92141.09
2022-12-04T00:40:20.252Z,92142.28
2022-12-04T00:42:46.672Z,92139.50
2022-12-04T00:45:13.099Z,92139.13
2022-12-04T00:47:39.524Z,92151.03
2022-12-04T00:50:06.735Z,92154.78
2022-12-04T00:52:33.177Z,92148.25
2022-12-04T00:54:59.604Z,92147.19
2022-12-04T00:57:26.102Z,92141.03
2022-12-04T00:59:52.632Z,92140.22
2022-12-04T01:02:19.233Z,92138.88
2022-12-04T01:04:45.674Z,92138.31
2022-12-04T01:07:12.120Z,92142.28
2022-12-04T01:09:38.598Z,92149.03
2022-12-04T01:12:05.124Z,92157.59
2022-12-04T01:14:31.576Z,92150.63
2022-12-04T01:16:58.558Z,92149.78
2022-12-04T01:19:25.062Z,92162.47
2022-12-04T01:21:51.602Z,92160.53
2022-12-04T01:24:18.112Z,92156.53
2022-12-04T01:26:44.521Z,92160.53
2022-12-04T01:29:11.016Z,92163.75
2022-12-04T01:31:37.597Z,92158.16
2022-12-04T01:34:04.202Z,92166.84
2022-12-04T01:36:30.697Z,92176.81
2022-12-04T01:38:57.160Z,92171.06
2022-12-04T01:41:27.601Z,92168.88
2022-12-04T01:44:26.419Z,92158.16
2022-12-04T01:46:58.685Z,92153.81
2022-12-04T01:49:37.375Z,92153.19
2022-12-04T01:52:09.644Z,92155.19
2022-12-04T01:54:39.856Z,92149.03
2022-12-04T01:57:11.651Z,92156.63
2022-12-04T01:59:50.247Z,92149.50
2022-12-04T02:02:22.217Z,92137.59
2022-12-04T02:04:48.896Z,92144.34
2022-12-04T02:07:15.471Z,92138.56
2022-12-04T02:09:43.017Z,92134.41
2022-12-04T02:12:38.879Z,92128.81
2022-12-04T02:15:17.116Z,92132.53
2022-12-04T02:17:52.772Z,92130.19
2022-12-04T02:20:47.334Z,92131.63
2022-12-04T02:23:39.443Z,92123.22
2022-12-04T02:26:37.468Z,92123.66
2022-12-04T02:29:12.048Z,92120.06
2022-12-04T02:31:47.274Z,92119.63
2022-12-04T02:34:22.652Z,92117.03
2022-12-04T02:37:00.204Z,92121.06
2022-12-04T02:39:57.048Z,92110.16
2022-12-04T02:42:38.919Z,92105.00
2022-12-04T02:45:13.708Z,92103.00
2022-12-04T02:47:43.382Z,92099.41
2022-12-04T02:50:13.845Z,92100.63
2022-12-04T02:52:46.374Z,92097.81
2022-12-04T02:55:20.124Z,92101.03
2022-12-04T02:57:51.073Z,92096.69
2022-12-04T03:00:18.267Z,92104.78
2022-12-04T03:03:02.670Z,92107.44
2022-12-04T03:05:41.496Z,92094.94
2022-12-04T03:08:14.298Z,92099.47
2022-12-04T03:10:48.591Z,92091.94
2022-12-04T03:13:47.841Z,92093.53
2022-12-04T03:16:41.486Z,92089.56
2022-12-04T03:19:10.476Z,92091.94
2022-12-04T03:21:41.348Z,92089.94
2022-12-04T03:24:24.509Z,92078.47
2022-12-04T03:27:02.601Z,92086.03
2022-12-04T03:30:01.489Z,92092.38
2022-12-04T03:32:45.147Z,92095.97
2022-12-04T03:35:18.916Z,92103.53
2022-12-04T03:37:55.926Z,92106.69
2022-12-04T03:40:48.716Z,92114.41
2022-12-04T03:43:22.975Z,92101.31
2022-12-04T03:46:01.183Z,92100.16
2022-12-04T03:48:42.846Z,92107.53
2022-12-04T03:51:18.226Z,92116.28
2022-12-04T03:53:50.444Z,92117.81
2022-12-04T03:56:27.185Z,92124.53
2022-12-04T03:58:57.970Z,92120.97
2022-12-04T04:01:30.433Z,92117.59
2022-12-04T04:03:59.922Z,92128.31
2022-12-04T04:06:34.526Z,92119.38
2022-12-04T04:09:08.931Z,92119.75
2022-12-04T04:11:43.744Z,92126.06
2022-12-04T04:14:45.529Z,92126.84
2022-12-04T04:17:38.451Z,92132.88
2022-12-04T04:20:29.231Z,92121.53
2022-12-04T04:23:18.593Z,92117.59
2022-12-04T04:25:47.169Z,92122.38
2022-12-04T04:28:32.650Z,92118.97
2022-12-04T04:31:33.209Z,92122.53
2022-12-04T04:34:10.541Z,92116.59
2022-12-04T04:37:15.599Z,92121.78
2022-12-04T04:39:57.261Z,92105.66
2022-12-04T04:42:32.751Z,92108.22
2022-12-04T04:45:08.137Z,92101.22
2022-12-04T04:47:47.137Z,92097.22
2022-12-04T04:50:15.847Z,92095.19
2022-12-04T04:52:46.760Z,92088.47
2022-12-04T04:55:16.155Z,92105.09
2022-12-04T04:57:43.134Z,92106.69
2022-12-04T05:00:15.560Z,92103.69
2022-12-04T05:02:42.517Z,92102.31
2022-12-04T05:05:09.329Z,92116.59
2022-12-04T05:07:35.917Z,92116.00
2022-12-04T05:10:02.455Z,92116.22
2022-12-04T05:12:28.871Z,92115.03
2022-12-04T05:14:55.286Z,92107.06
2022-12-04T05:17:21.793Z,92105.63
2022-12-04T05:19:55.277Z,92108.22
2022-12-04T05:22:29.145Z,92111.16
2022-12-04T05:24:55.944Z,92113.59
2022-12-04T05:27:24.468Z,92100.50
2022-12-04T05:29:56.030Z,92100.78
2022-12-04T05:32:24.949Z,92100.38
2022-12-04T05:34:52.648Z,92100.16
2022-12-04T05:37:19.565Z,92096.34
2022-12-04T05:39:46.799Z,92101.88
2022-12-04T05:42:13.933Z,92091.38
2022-12-04T05:44:40.377Z,92092.94
2022-12-04T05:47:07.336Z,92098.09
2022-12-04T05:49:34.759Z,92109.00
2022-12-04T05:52:02.509Z,92107.44
2022-12-04T05:54:28.926Z,92111.00
2022-12-04T05:56:55.341Z,92116.00
2022-12-04T05:59:22.016Z,92113.41
2022-12-04T06:01:48.484Z,92124.94
2022-12-04T06:04:15.098Z,92122.53
2022-12-04T06:06:41.595Z,92134.06
2022-12-04T06:09:09.192Z,92127.94
2022-12-04T06:11:37.594Z,92118.81
2022-12-04T06:14:06.596Z,92120.19
2022-12-04T06:16:38.950Z,92119.19
2022-12-04T06:19:09.122Z,92110.06
2022-12-04T06:21:37.818Z,92114.41
2022-12-04T06:24:04.823Z,92123.34
2022-12-04T06:26:31.681Z,92124.94
2022-12-04T06:28:59.833Z,92118.53
2022-12-04T06:31:28.853Z,92136.41
2022-12-04T06:33:57.367Z,92125.28
2022-12-04T06:36:24.154Z,92121.34
2022-12-04T06:38:51.768Z,92115.31
2022-12-04T06:41:20.714Z,92108.59
2022-12-04T06:43:48.503Z,92100.25
2022-12-04T06:46:18.782Z,92105.44
2022-12-04T06:48:45.494Z,92109.72
2022-12-04T06:51:32.552Z,92116.69
2022-12-04T06:54:00.009Z,92130.19
2022-12-04T06:56:29.047Z,92123.22
2022-12-04T06:58:57.430Z,92132.53
2022-12-04T07:01:30.083Z,92121.28
2022-12-04T07:03:57.585Z,92131.28
2022-12-04T07:06:27.393Z,92134.00
2022-12-04T07:08:58.000Z,92121.28
2022-12-04T07:11:24.797Z,92129.59
2022-12-04T07:13:52.039Z,92139.28
2022-12-04T07:16:20.825Z,92144.09
2022-12-04T07:18:50.336Z,92152.66
2022-12-04T07:21:19.365Z,92147.31
2022-12-04T07:23:49.951Z,92157.00
2022-12-04T07:26:17.062Z,92145.53
2022-12-04T07:28:45.148Z,92153.03
2022-12-04T07:31:15.880Z,92153.84
2022-12-04T07:33:43.550Z,92147.44
2022-12-04T07:36:15.625Z,92156.56
2022-12-04T07:38:42.627Z,92156.97
2022-12-04T07:41:11.413Z,92151.38
2022-12-04T07:43:38.249Z,92152.13
2022-12-04T07:46:12.009Z,92152.53
2022-12-04T07:48:38.537Z,92153.66
2022-12-04T07:51:13.788Z,92158.47
2022-12-04T07:53:40.910Z,92158.69
2022-12-04T07:56:08.449Z,92157.69
2022-12-04T07:58:35.265Z,92151.38
2022-12-04T08:01:16.709Z,92144.56
2022-12-04T08:03:48.095Z,92139.75
2022-12-04T08:06:17.105Z,92144.88
2022-12-04T08:08:43.562Z,92135.69
2022-12-04T08:11:13.097Z,92133.91
2022-12-04T08:13:39.743Z,92136.06
2022-12-04T08:16:08.151Z,92138.78
2022-12-04T08:18:35.194Z,92133.22
2022-12-04T08:21:09.811Z,92131.97
2022-12-04T08:23:37.451Z,92136.38
2022-12-04T08:26:05.001Z,92132.59
2022-12-04T08:28:32.621Z,92140.16
2022-12-04T08:31:04.777Z,92137.56
2022-12-04T08:33:31.609Z,92129.97
2022-12-04T08:35:58.329Z,92127.19
2022-12-04T08:38:24.774Z,92125.94
2022-12-04T08:40:51.188Z,92130.13
2022-12-04T08:43:17.673Z,92132.84
2022-12-04T08:45:44.147Z,92129.91
2022-12-04T08:48:10.936Z,92131.91
2022-12-04T08:50:37.358Z,92139.03
2022-12-04T08:53:03.764Z,92128.47
2022-12-04T08:55:30.268Z,92130.25
2022-12-04T08:57:56.762Z,92137.00
2022-12-04T09:00:25.827Z,92140.53
2022-12-04T09:02:52.260Z,92144.13
2022-12-04T09:05:18.731Z,92155.88
2022-12-04T09:07:45.171Z,92161.28
2022-12-04T09:10:12.347Z,92166.22
2022-12-04T09:12:39.015Z,92177.13
2022-12-04T09:15:06.561Z,92177.13
2022-12-04T09:17:36.195Z,92181.09
2022-12-04T09:20:04.774Z,92175.13
2022-12-04T09:22:57.722Z,92173.13
2022-12-04T09:25:19.517Z,92167.59
2022-12-04T09:27:45.951Z,92161.63
2022-12-04T09:30:13.068Z,92160.34
2022-12-04T09:32:39.501Z,92159.72
2022-12-04T09:35:06.744Z,92162.22
2022-12-04T09:37:33.853Z,92172.34
2022-12-04T09:40:00.285Z,92166.59
2022-12-04T09:42:47.766Z,92173.47
2022-12-04T09:45:22.131Z,92181.09
2022-12-04T09:47:52.042Z,92170.56
2022-12-04T09:50:20.949Z,92168.53
2022-12-04T09:52:56.077Z,92158.78
2022-12-04T09:55:25.724Z,92163.38
2022-12-04T09:57:59.993Z,92162.38
2022-12-04T10:00:29.916Z,92153.81
2022-12-04T10:03:03.861Z,92153.16
2022-12-04T10:05:58.860Z,92158.19
2022-12-04T10:08:29.347Z,92153.47
2022-12-04T10:11:13.135Z,92159.34
2022-12-04T10:14:26.873Z,92161.78
2022-12-04T10:17:20.991Z,92158.47
2022-12-04T10:20:12.264Z,92163.00
2022-12-04T10:23:15.567Z,92163.38
2022-12-04T10:25:43.416Z,92161.63
2022-12-04T10:28:23.393Z,92162.44
2022-12-04T10:30:52.451Z,92160.66
2022-12-04T10:33:32.208Z,92163.13
2022-12-04T10:35:59.273Z,92150.56
2022-12-04T10:38:30.363Z,92151.72
2022-12-04T10:41:14.566Z,92135.00
2022-12-04T10:43:46.596Z,92136.38
2022-12-04T10:46:16.192Z,92130.97
2022-12-04T10:48:46.283Z,92124.09
2022-12-04T10:51:19.156Z,92116.56
2022-12-04T10:53:46.477Z,92115.38
2022-12-04T10:56:14.670Z,92122.03
2022-12-04T10:58:41.516Z,92112.81
2022-12-04T11:01:15.433Z,92104.72
2022-12-04T11:03:46.453Z,92098.97
2022-12-04T11:06:14.565Z,92096.38
2022-12-04T11:08:44.771Z,92090.56
2022-12-04T11:11:14.349Z,92082.22
2022-12-04T11:13:41.222Z,92078.72
2022-12-04T11:16:08.563Z,92078.28
2022-12-04T11:18:47.781Z,92073.47
2022-12-04T11:21:17.542Z,92080.22
2022-12-04T11:23:47.385Z,92090.09
2022-12-04T11:26:14.576Z,92103.31
2022-12-04T11:28:54.471Z,92092.72
2022-12-04T11:31:23.034Z,92087.03
2022-12-04T11:33:56.199Z,92078.59
2022-12-04T11:36:28.213Z,92071.97
2022-12-04T11:39:06.928Z,92071.97
2022-12-04T11:41:34.863Z,92071.41
2022-12-04T11:44:01.667Z,92061.94
2022-12-04T11:46:31.596Z,92057.31
2022-12-04T11:48:59.288Z,92051.09
2022-12-04T11:51:44.480Z,92045.00
2022-12-04T11:54:35.905Z,92046.66
2022-12-04T11:57:02.574Z,92034.63
2022-12-04T11:59:37.881Z,92042.25
2022-12-04T12:02:10.595Z,92033.78
2022-12-04T12:04:55.328Z,92036.28
2022-12-04T12:07:40.969Z,92038.66
2022-12-04T12:10:15.711Z,92043.03
2022-12-04T12:13:03.985Z,92072.97
2022-12-04T12:15:49.172Z,92081.00
2022-12-04T12:18:33.756Z,92063.59
2022-12-04T12:21:27.784Z,92061.25
2022-12-04T12:24:19.244Z,92064.66
2022-12-04T12:27:05.412Z,92055.88
2022-12-04T12:29:55.951Z,92054.09
2022-12-04T12:32:45.325Z,92042.84
2022-12-04T12:35:38.959Z,92049.28
2022-12-04T12:38:12.861Z,92063.81
2022-12-04T12:40:47.325Z,92074.47
2022-12-04T12:43:22.073Z,92080.81
2022-12-04T12:45:56.899Z,92080.81
2022-12-04T12:48:32.922Z,92074.63
2022-12-04T12:51:29.222Z,92075.72
2022-12-04T12:54:01.655Z,92074.13
2022-12-04T12:56:44.806Z,92079.63
2022-12-04T12:59:21.836Z,92081.91
2022-12-04T13:01:57.281Z,92078.97
2022-12-04T13:04:40.384Z,92075.47
2022-12-04T13:07:18.932Z,92079.53
2022-12-04T13:10:07.676Z,92092.28
2022-12-04T13:12:44.286Z,92094.97
2022-12-04T13:15:18.909Z,92092.56
2022-12-04T13:17:48.533Z,92101.59
2022-12-04T13:20:22.521Z,92103.25
2022-12-04T13:23:10.679Z,92092.66
2022-12-04T13:25:48.021Z,92090.22
2022-12-04T13:28:29.729Z,92090.44
2022-12-04T13:31:38.311Z,92098.84
2022-12-04T13:34:04.729Z,92095.72
2022-12-04T13:36:49.563Z,92099.28
2022-12-04T13:39:29.579Z,92088.44
2022-12-04T13:42:01.917Z,92089.72
2022-12-04T13:44:31.068Z,92081.84
2022-12-04T13:47:01.195Z,92081.38
2022-12-04T13:49:31.077Z,92072.59
2022-12-04T13:51:59.144Z,92065.53
2022-12-04T13:54:27.431Z,92070.91
2022-12-04T13:56:57.556Z,92058.78
2022-12-04T13:59:35.286Z,92057.22
2022-12-04T14:02:22.751Z,92053.16
2022-12-04T14:04:56.333Z,92050.78
2022-12-04T14:07:37.293Z,92045.03
2022-12-04T14:10:38.648Z,92047.19
2022-12-04T14:13:28.478Z,92054.50
2022-12-04T14:16:07.839Z,92058.78
2022-12-04T14:18:34.528Z,92064.88
2022-12-04T14:21:04.813Z,92068.03
2022-12-04T14:23:37.893Z,92069.25
2022-12-04T14:26:05.359Z,92070.81
2022-12-04T14:28:34.842Z,92070.47
2022-12-04T14:31:05.211Z,92079.78
2022-12-04T14:33:37.221Z,92087.88
2022-12-04T14:36:06.953Z,92081.81
2022-12-04T14:38:34.272Z,92093.31
2022-12-04T14:41:01.668Z,92091.59
2022-12-04T14:43:39.395Z,92092.59
2022-12-04T14:46:14.958Z,92088.25
2022-12-04T14:49:06.489Z,92090.47
2022-12-04T14:51:41.711Z,92082.16
2022-12-04T14:54:49.236Z,92088.53
2022-12-04T14:57:31.946Z,92088.09
2022-12-04T15:00:00.531Z,92095.63
2022-12-04T15:02:41.784Z,92089.66
2022-12-04T15:05:24.293Z,92091.59
2022-12-04T15:07:54.179Z,92086.44
2022-12-04T15:10:47.340Z,92084.41
2022-12-04T15:13:34.674Z,92086.78
2022-12-04T15:16:17.300Z,92078.78
2022-12-04T15:18:57.871Z,92071.91
2022-12-04T15:21:37.878Z,92079.31
2022-12-04T15:24:09.429Z,92075.72
2022-12-04T15:26:37.313Z,92081.69
2022-12-04T15:29:07.278Z,92069.31
2022-12-04T15:31:46.805Z,92066.19
2022-12-04T15:34:16.779Z,92062.13
2022-12-04T15:36:48.940Z,92063.16
2022-12-04T15:39:25.219Z,92065.72
2022-12-04T15:41:52.397Z,92068.19
2022-12-04T15:44:30.524Z,92073.81
2022-12-04T15:47:00.157Z,92074.16
2022-12-04T15:49:32.180Z,92075.31
2022-12-04T15:52:12.511Z,92068.31
2022-12-04T15:54:50.373Z,92068.66
2022-12-04T15:57:23.785Z,92070.59
2022-12-04T15:59:51.825Z,92062.84
2022-12-04T16:02:35.313Z,92065.63
2022-12-04T16:05:29.232Z,92060.25
2022-12-04T16:07:58.480Z,92059.25
2022-12-04T16:10:26.663Z,92063.41
2022-12-04T16:12:55.298Z,92062.59
2022-12-04T16:15:23.317Z,92064.06
2022-12-04T16:17:50.739Z,92059.44
2022-12-04T16:20:17.430Z,92073.53
2022-12-04T16:22:44.697Z,92073.53
2022-12-04T16:25:13.418Z,92076.66
2022-12-04T16:27:39.856Z,92075.91
2022-12-04T16:30:06.825Z,92078.25
2022-12-04T16:32:34.197Z,92073.44
2022-12-04T16:35:00.864Z,92065.31
2022-12-04T16:37:30.043Z,92080.63
2022-12-04T16:39:56.580Z,92076.56
2022-12-04T16:42:29.202Z,92074.56
2022-12-04T16:44:56.274Z,92078.16
2022-12-04T16:47:22.965Z,92081.31
2022-12-04T16:49:50.976Z,92082.88
2022-12-04T16:52:18.285Z,92077.72
2022-12-04T16:54:44.747Z,92078.50
2022-12-04T16:57:11.208Z,92074.69
2022-12-04T16:59:37.840Z,92078.50
2022-12-04T17:02:12.240Z,92091.66
2022-12-04T17:04:38.784Z,92092.34
2022-12-04T17:07:05.261Z,92093.34
2022-12-04T17:09:31.696Z,92092.56
2022-12-04T17:11:58.245Z,92094.56
2022-12-04T17:14:24.706Z,92104.94
2022-12-04T17:16:51.966Z,92107.50
2022-12-04T17:19:18.879Z,92119.00
2022-12-04T17:21:46.140Z,92121.59
2022-12-04T17:24:12.582Z,92124.41
2022-12-04T17:26:39.040Z,92120.44
2022-12-04T17:29:05.487Z,92120.44
2022-12-04T17:31:31.983Z,92122.38
2022-12-04T17:33:58.496Z,92131.94
2022-12-04T17:36:27.589Z,92128.22
2022-12-04T17:38:56.748Z,92127.22
2022-12-04T17:41:23.393Z,92130.81
2022-12-04T17:43:50.347Z,92121.47
2022-12-04T17:46:21.420Z,92126.06
2022-12-04T17:48:48.739Z,92120.91
2022-12-04T17:51:18.513Z,92121.66
2022-12-04T17:53:45.536Z,92117.19
2022-12-04T17:56:17.557Z,92121.34
2022-12-04T17:58:44.939Z,92118.19
2022-12-04T18:01:17.379Z,92119.31
2022-12-04T18:03:48.555Z,92138.56
2022-12-04T18:06:18.171Z,92145.53
2022-12-04T18:08:49.850Z,92148.34
2022-12-04T18:11:21.062Z,92144.41
2022-12-04T18:13:59.500Z,92147.34
2022-12-04T18:16:28.366Z,92153.16
2022-12-04T18:18:56.418Z,92154.41
2022-12-04T18:21:22.957Z,92158.88
2022-12-04T18:23:49.511Z,92157.28
2022-12-04T18:26:19.321Z,92157.72
2022-12-04T18:28:46.430Z,92157.28
2022-12-04T18:31:14.256Z,92168.34
2022-12-04T18:33:42.217Z,92160.00
2022-12-04T18:36:14.792Z,92169.94
2022-12-04T18:38:41.519Z,92170.28
2022-12-04T18:41:10.084Z,92180.84
2022-12-04T18:43:38.689Z,92184.00
2022-12-04T18:46:08.314Z,92195.13
2022-12-04T18:48:36.342Z,92190.97
2022-12-04T18:51:24.130Z,92184.78
2022-12-04T18:53:52.294Z,92175.81
2022-12-04T18:56:18.977Z,92179.97
2022-12-04T18:58:46.496Z,92183.00
2022-12-04T19:01:15.494Z,92171.63
2022-12-04T19:03:42.333Z,92166.22
2022-12-04T19:06:08.886Z,92155.31
2022-12-04T19:08:40.080Z,92153.53
2022-12-04T19:11:13.053Z,92157.13
2022-12-04T19:13:39.577Z,92162.31
2022-12-04T19:16:12.317Z,92161.28
2022-12-04T19:18:38.790Z,92175.81
2022-12-04T19:21:08.728Z,92174.22
2022-12-04T19:23:35.184Z,92170.50
2022-12-04T19:26:01.813Z,92193.00
2022-12-04T19:28:28.676Z,92193.78
2022-12-04T19:30:56.077Z,92196.94
2022-12-04T19:33:23.930Z,92204.91
2022-12-04T19:36:00.983Z,92193.78
2022-12-04T19:38:27.810Z,92193.78
2022-12-04T19:41:04.684Z,92202.78
2022-12-04T19:43:31.641Z,92200.63
2022-12-04T19:45:58.174Z,92205.94
2022-12-04T19:48:24.662Z,92200.19
2022-12-04T19:50:51.237Z,92203.22
2022-12-04T19:53:17.661Z,92203.56
2022-12-04T19:55:44.164Z,92202.97
2022-12-04T19:58:10.763Z,92207.13
2022-12-04T20:00:37.228Z,92202.56
2022-12-04T20:03:04.170Z,92202.78
2022-12-04T20:05:30.683Z,92210.97
2022-12-04T20:10:23.380Z,92210.16
2022-12-04T20:12:49.836Z,92199.03
2022-12-04T20:15:16.333Z,92201.97
2022-12-04T20:17:42.768Z,92201.31
2022-12-04T20:20:09.436Z,92204.16
2022-12-04T20:22:36.815Z,92208.97
2022-12-04T20:25:03.394Z,92211.34
2022-12-04T20:27:29.820Z,92212.91
2022-12-04T20:29:56.536Z,92217.50
2022-12-04T20:32:23.173Z,92227.63
2022-12-04T20:34:49.607Z,92226.25
2022-12-04T20:37:16.038Z,92226.84
2022-12-04T20:39:42.468Z,92227.44
2022-12-04T20:42:08.942Z,92224.84
2022-12-04T20:44:35.416Z,92215.63
2022-12-04T20:47:01.852Z,92213.75
2022-12-04T20:49:28.325Z,92214.31
2022-12-04T20:51:54.729Z,92216.78
2022-12-04T20:54:23.042Z,92222.94
2022-12-04T20:56:51.973Z,92227.56
2022-12-04T20:59:21.193Z,92220.81
2022-12-04T21:01:49.104Z,92221.94
2022-12-04T21:04:17.734Z,92220.16
2022-12-04T21:06:45.112Z,92220.50
2022-12-04T21:09:23.611Z,92219.28
2022-12-04T21:11:55.302Z,92216.34
2022-12-04T21:14:43.168Z,92217.13
2022-12-04T21:17:16.581Z,92218.34
2022-12-04T21:19:43.152Z,92219.94
2022-12-04T21:22:09.650Z,92225.91
2022-12-04T21:24:38.528Z,92225.34
2022-12-04T21:27:09.267Z,92230.28
2022-12-04T21:29:37.264Z,92233.44
2022-12-04T21:32:05.743Z,92238.63
2022-12-04T21:34:32.648Z,92236.59
2022-12-04T21:36:59.088Z,92234.59
2022-12-04T21:39:25.704Z,92238.16
2022-12-04T21:42:11.650Z,92234.25
2022-12-04T21:44:38.261Z,92235.00
2022-12-04T21:47:04.871Z,92248.53
2022-12-04T21:49:31.301Z,92255.16
2022-12-04T21:51:58.840Z,92252.13
2022-12-04T21:54:28.764Z,92243.00
2022-12-04T21:56:56.794Z,92235.91
2022-12-04T21:59:24.895Z,92237.91
2022-12-04T22:01:52.011Z,92231.16
2022-12-04T22:04:18.636Z,92229.56
2022-12-04T22:06:45.098Z,92228.00
2022-12-04T22:09:12.668Z,92222.25
2022-12-04T22:11:43.451Z,92229.66
2022-12-04T22:14:11.204Z,92234.47
2022-12-04T22:16:41.820Z,92243.66
2022-12-04T22:19:10.170Z,92247.06
2022-12-04T22:21:36.608Z,92251.00
2022-12-04T22:24:04.208Z,92262.16
2022-12-04T22:26:31.205Z,92261.34
2022-12-04T22:28:57.914Z,92279.69
2022-12-04T22:31:27.368Z,92281.91
2022-12-04T22:33:55.354Z,92284.50
2022-12-04T22:36:24.001Z,92288.66
2022-12-04T22:39:09.816Z,92291.03
2022-12-04T22:41:37.537Z,92305.75
2022-12-04T22:44:04.787Z,92309.34
2022-12-04T22:46:31.799Z,92319.13
2022-12-04T22:48:59.244Z,92316.75
2022-12-04T22:51:27.114Z,92317.97
2022-12-04T22:53:57.463Z,92315.22
2022-12-04T22:56:25.281Z,92317.81
2022-12-04T22:58:52.422Z,92320.69
2022-12-04T23:01:21.696Z,92325.44
2022-12-04T23:03:48.698Z,92329.75
2022-12-04T23:06:16.815Z,92330.44
2022-12-04T23:08:44.481Z,92328.25
2022-12-04T23:11:17.416Z,92320.63
2022-12-04T23:13:49.078Z,92317.03
2022-12-04T23:16:19.898Z,92318.25
2022-12-04T23:18:47.219Z,92324.22
2022-12-04T23:21:15.057Z,92325.75
2022-12-04T23:23:43.248Z,92328.47
2022-12-04T23:26:17.803Z,92324.44
2022-12-04T23:28:44.585Z,92320.84
2022-12-04T23:31:12.144Z,92326.59
2022-12-04T23:33:39.982Z,92322.44
2022-12-04T23:36:08.705Z,92328.84
2022-12-04T23:38:37.010Z,92332.78
2022-12-04T23:41:07.346Z,92336.38
2022-12-04T23:43:34.644Z,92333.22
2022-12-04T23:46:04.476Z,92336.81
2022-12-04T23:48:33.881Z,92344.00
2022-12-04T23:51:00.397Z,92347.72
2022-12-04T23:53:27.110Z,92358.66
2022-12-04T23:56:19.972Z,92363.06
2022-12-04T23:58:48.691Z,92373.59
